Terminal Aerodrome Forecast
Issued by NWS

Home | Current Version | Previous Version | Text Only | Print | Product List | Glossary On
Versions: 1 2 3 4 5 6 7 8 9 10 11 12 13 14 15 16 17 18 19 20 21 22 23 24 25 26 27 28
000
FTPA31 PHFO 270500
TAFKOA
TAF
PHKO 270537Z 2706/2806 13005KT P6SM FEW050
     FM270800 05005KT P6SM FEW050
     FM271900 25007KT P6SM FEW035 SCT060
     FM272200 25011KT P6SM FEW035 SCT060
     FM280500 11005KT P6SM FEW050=

USA.gov is the U.S. government's official web portal to all federal, state and local government web resources and services.